Time;durP1;ratioP1;P1;durP2;ratioP2;P2;SDS_P1;SDS_P2;PMS_P1;PMS_P2;Temp;Humidity;BMP_temperature;BMP_pressure;BME280_temperature;BME280_humidity;BME280_pressure;Samples;Min_cycle;Max_cycle;Signal;HPM_P1;HPM_P2
2022/07/01 00:02:06;;;;;;;0.80;0.60;;;;;;;;;;5086297;28;20196;-69
2022/07/01 00:04:32;;;;;;;1.30;0.77;;;;;;;;;;5085833;28;20238;-69
2022/07/01 00:06:58;;;;;;;0.65;0.40;;;;;;;;;;5085662;28;20208;-69
2022/07/01 00:09:25;;;;;;;1.00;0.50;;;;;;;;;;5085811;28;20224;-69
2022/07/01 00:11:51;;;;;;;0.70;0.70;;;;;;;;;;5085874;28;20196;-69
2022/07/01 00:14:19;;;;;;;2.53;0.70;;;;;;;;;;5086023;28;20533;-69
2022/07/01 00:16:45;;;;;;;1.33;0.70;;;;;;;;;;5085781;28;20207;-69
2022/07/01 00:19:11;;;;;;;1.35;0.65;;;;;;;;;;5085601;28;20192;-69
2022/07/01 00:21:37;;;;;;;1.35;0.60;;;;;;;;;;5085791;28;20441;-69
2022/07/01 00:24:04;;;;;;;2.13;0.60;;;;;;;;;;5085576;28;20197;-69
2022/07/01 00:26:30;;;;;;;1.73;0.50;;;;;;;;;;5085264;28;20507;-69
2022/07/01 00:28:57;;;;;;;2.13;0.73;;;;;;;;;;5085605;28;20216;-69
2022/07/01 00:31:25;;;;;;;0.60;0.60;;;;;;;;;;5085431;28;20204;-69
2022/07/01 00:33:51;;;;;;;2.42;0.70;;;;;;;;;;5085414;28;20271;-69
2022/07/01 00:36:17;;;;;;;1.98;0.68;;;;;;;;;;5085234;28;20418;-69
2022/07/01 00:38:43;;;;;;;1.13;0.80;;;;;;;;;;5085373;28;20203;-69
2022/07/01 00:41:10;;;;;;;0.85;0.47;;;;;;;;;;5085187;28;20196;-69
2022/07/01 00:43:38;;;;;;;2.72;0.80;;;;;;;;;;5085189;28;20200;-69
2022/07/01 00:46:04;;;;;;;2.30;0.93;;;;;;;;;;5085075;28;20379;-69
2022/07/01 00:48:33;;;;;;;3.10;0.73;;;;;;;;;;5085238;28;20232;-69
2022/07/01 00:50:59;;;;;;;2.05;0.85;;;;;;;;;;5085222;28;20200;-69
2022/07/01 00:53:26;;;;;;;2.75;0.65;;;;;;;;;;5085076;28;20197;-69
2022/07/01 00:55:52;;;;;;;2.15;0.63;;;;;;;;;;5085337;28;20212;-69
2022/07/01 00:58:19;;;;;;;1.73;0.70;;;;;;;;;;5084964;28;20227;-69
2022/07/01 01:00:45;;;;;;;2.92;0.50;;;;;;;;;;5085086;28;20211;-69
2022/07/01 01:03:11;;;;;;;2.05;0.70;;;;;;;;;;5084940;28;20202;-70
2022/07/01 01:05:39;;;;;;;2.42;0.80;;;;;;;;;;5084823;28;20224;-69
2022/07/01 01:08:06;;;;;;;1.38;0.75;;;;;;;;;;5084583;28;20197;-69
2022/07/01 01:10:32;;;;;;;0.95;0.57;;;;;;;;;;5083917;28;20196;-69
2022/07/01 01:12:58;;;;;;;1.65;0.50;;;;;;;;;;5084779;28;20196;-69
2022/07/01 01:15:24;;;;;;;1.35;0.60;;;;;;;;;;5084872;28;20200;-69
2022/07/01 01:17:51;;;;;;;1.75;0.80;;;;;;;;;;5084580;28;20197;-69
2022/07/01 01:20:19;;;;;;;0.60;0.60;;;;;;;;;;5084636;28;20193;-69
2022/07/01 01:22:48;;;;;;;1.65;0.70;;;;;;;;;;5084562;28;20196;-69
2022/07/01 01:25:14;;;;;;;0.88;0.65;;;;;;;;;;5083838;28;20224;-69
2022/07/01 01:27:40;;;;;;;1.15;0.47;;;;;;;;;;5084303;28;20515;-69
2022/07/01 01:30:08;;;;;;;1.00;0.70;;;;;;;;;;5084120;28;20291;-69
2022/07/01 01:32:34;;;;;;;1.52;0.57;;;;;;;;;;5084585;28;20262;-69
2022/07/01 01:35:00;;;;;;;0.55;0.55;;;;;;;;;;5084541;28;20196;-69
2022/07/01 01:37:27;;;;;;;0.52;0.40;;;;;;;;;;5084194;28;20197;-69
2022/07/01 01:39:54;;;;;;;0.52;0.50;;;;;;;;;;5084091;28;20227;-69
2022/07/01 01:42:21;;;;;;;1.83;0.57;;;;;;;;;;5084325;28;20504;-69
2022/07/01 01:44:47;;;;;;;0.60;0.60;;;;;;;;;;5084116;28;20257;-69
2022/07/01 01:47:14;;;;;;;1.27;0.57;;;;;;;;;;5084112;28;20200;-69
2022/07/01 01:49:40;;;;;;;0.60;0.40;;;;;;;;;;5084127;28;20220;-69
2022/07/01 01:52:06;;;;;;;2.80;0.52;;;;;;;;;;5084189;28;20203;-69
2022/07/01 01:54:35;;;;;;;0.50;0.50;;;;;;;;;;5083959;28;20196;-69
2022/07/01 01:57:03;;;;;;;2.22;0.65;;;;;;;;;;5083599;28;20204;-69
2022/07/01 01:59:29;;;;;;;0.45;0.43;;;;;;;;;;5083734;28;20193;-69
2022/07/01 02:01:55;;;;;;;0.63;0.47;;;;;;;;;;5084117;28;20234;-69
2022/07/01 02:04:23;;;;;;;0.55;0.55;;;;;;;;;;5083698;28;20196;-69
2022/07/01 02:06:49;;;;;;;0.50;0.50;;;;;;;;;;5083515;28;20287;-69
2022/07/01 02:09:15;;;;;;;2.17;0.40;;;;;;;;;;5083472;28;20219;-69
2022/07/01 02:11:42;;;;;;;0.50;0.50;;;;;;;;;;5083494;28;20203;-69
2022/07/01 02:14:09;;;;;;;1.95;0.57;;;;;;;;;;5083672;28;20500;-69
2022/07/01 02:16:36;;;;;;;1.40;0.63;;;;;;;;;;5083544;28;20717;-69
2022/07/01 02:19:02;;;;;;;1.15;0.70;;;;;;;;;;5083336;28;20224;-69
2022/07/01 02:21:29;;;;;;;1.95;0.40;;;;;;;;;;5083481;28;20196;-69
2022/07/01 02:23:55;;;;;;;0.50;0.50;;;;;;;;;;5082339;28;20204;-69
2022/07/01 02:26:21;;;;;;;0.90;0.50;;;;;;;;;;5082907;28;20201;-69
2022/07/01 02:28:48;;;;;;;0.60;0.50;;;;;;;;;;5083306;28;20443;-69
2022/07/01 02:31:15;;;;;;;0.63;0.60;;;;;;;;;;5083252;28;20208;-69
2022/07/01 02:33:42;;;;;;;0.50;0.50;;;;;;;;;;5083198;28;20203;-69
2022/07/01 02:36:08;;;;;;;1.20;0.60;;;;;;;;;;5082981;28;20205;-69
2022/07/01 02:38:34;;;;;;;0.70;0.70;;;;;;;;;;5083003;28;20196;-69
2022/07/01 02:41:00;;;;;;;0.50;0.43;;;;;;;;;;5082980;28;20407;-69
2022/07/01 02:43:27;;;;;;;1.52;1.00;;;;;;;;;;5083120;28;20200;-69
2022/07/01 02:45:53;;;;;;;2.00;0.70;;;;;;;;;;5083038;28;20272;-69
2022/07/01 02:48:21;;;;;;;0.60;0.60;;;;;;;;;;5083013;28;20196;-69
2022/07/01 02:50:47;;;;;;;2.28;0.70;;;;;;;;;;5082853;28;20427;-69
2022/07/01 02:53:13;;;;;;;1.45;0.73;;;;;;;;;;5082886;28;20220;-69
2022/07/01 02:55:39;;;;;;;0.80;0.80;;;;;;;;;;5082682;28;20204;-69
2022/07/01 02:58:06;;;;;;;1.85;0.70;;;;;;;;;;5082755;28;20205;-69
2022/07/01 03:00:32;;;;;;;0.77;0.77;;;;;;;;;;5082643;28;20193;-69
2022/07/01 03:02:58;;;;;;;3.28;0.70;;;;;;;;;;5082775;28;20396;-69
2022/07/01 03:05:26;;;;;;;1.95;0.60;;;;;;;;;;5082527;28;20212;-69
2022/07/01 03:07:52;;;;;;;0.77;0.73;;;;;;;;;;5082871;28;20203;-69
2022/07/01 03:10:18;;;;;;;0.70;0.70;;;;;;;;;;5082460;28;20223;-69
2022/07/01 03:12:45;;;;;;;2.83;0.60;;;;;;;;;;5082687;28;20203;-69
2022/07/01 03:15:12;;;;;;;0.85;0.47;;;;;;;;;;5082698;28;20200;-69
2022/07/01 03:17:39;;;;;;;0.50;0.50;;;;;;;;;;5082533;28;20200;-69
2022/07/01 03:20:06;;;;;;;0.43;0.43;;;;;;;;;;5082515;28;20500;-69
2022/07/01 03:22:34;;;;;;;1.00;0.80;;;;;;;;;;5082367;28;20219;-69
2022/07/01 03:25:00;;;;;;;0.70;0.70;;;;;;;;;;5082316;28;20282;-69
2022/07/01 03:27:27;;;;;;;0.98;0.93;;;;;;;;;;5082429;28;20512;-69
2022/07/01 03:29:53;;;;;;;0.90;0.90;;;;;;;;;;5082647;28;20220;-69
2022/07/01 03:32:19;;;;;;;0.80;0.80;;;;;;;;;;5082483;28;20216;-69
2022/07/01 03:34:47;;;;;;;3.22;1.80;;;;;;;;;;5081869;28;20200;-69
2022/07/01 03:37:13;;;;;;;2.88;1.50;;;;;;;;;;5081780;28;20242;-69
2022/07/01 03:39:41;;;;;;;3.05;0.80;;;;;;;;;;5082452;28;20192;-69
2022/07/01 03:42:08;;;;;;;1.20;1.20;;;;;;;;;;5082479;28;20203;-69
2022/07/01 03:44:35;;;;;;;1.20;1.10;;;;;;;;;;5082362;28;20219;-69
2022/07/01 03:47:01;;;;;;;1.55;1.10;;;;;;;;;;5082161;28;20200;-69
2022/07/01 03:49:28;;;;;;;1.52;1.40;;;;;;;;;;5082153;28;20217;-69
2022/07/01 03:51:54;;;;;;;0.90;0.90;;;;;;;;;;5082028;28;20196;-69
2022/07/01 03:54:38;;;;;;;2.00;0.93;;;;;;;;;;5082047;28;20201;-69
2022/07/01 03:57:06;;;;;;;1.98;1.20;;;;;;;;;;5082006;28;20263;-69
2022/07/01 03:59:35;;;;;;;1.10;1.10;;;;;;;;;;5082107;28;20196;-69
2022/07/01 04:02:01;;;;;;;0.80;0.80;;;;;;;;;;5082045;28;20196;-69
2022/07/01 04:04:28;;;;;;;1.08;0.98;;;;;;;;;;5082130;28;20207;-69
2022/07/01 04:06:54;;;;;;;0.90;0.90;;;;;;;;;;5081717;28;20220;-69
2022/07/01 04:09:21;;;;;;;2.70;1.15;;;;;;;;;;5082069;28;20216;-69
2022/07/01 04:11:49;;;;;;;0.70;0.70;;;;;;;;;;5081975;28;20512;-69
2022/07/01 04:14:16;;;;;;;1.20;1.20;;;;;;;;;;5081780;28;20205;-69
2022/07/01 04:16:44;;;;;;;0.98;0.90;;;;;;;;;;5081540;28;20204;-68
2022/07/01 04:19:10;;;;;;;1.20;1.10;;;;;;;;;;5081698;28;20197;-68
2022/07/01 04:24:22;;;;;;;1.35;0.70;;;;;;;;;;5082087;28;20535;-68
2022/07/01 04:26:49;;;;;;;3.50;0.85;;;;;;;;;;5081587;28;20242;-68
2022/07/01 04:29:16;;;;;;;3.50;0.82;;;;;;;;;;5081642;28;20204;-68
2022/07/01 04:31:43;;;;;;;0.80;0.80;;;;;;;;;;5082063;28;20555;-68
2022/07/01 04:34:09;;;;;;;0.73;0.73;;;;;;;;;;5081994;28;20197;-68
2022/07/01 04:36:35;;;;;;;0.75;0.75;;;;;;;;;;5081646;28;20234;-68
2022/07/01 04:39:02;;;;;;;0.93;0.77;;;;;;;;;;5081658;28;20422;-68
2022/07/01 04:44:12;;;;;;;1.85;0.60;;;;;;;;;;5081618;28;20230;-68
2022/07/01 04:46:40;;;;;;;0.68;0.68;;;;;;;;;;5083119;28;20234;-68
2022/07/01 04:49:06;;;;;;;0.52;0.52;;;;;;;;;;5085513;28;20234;-68
2022/07/01 04:51:34;;;;;;;1.05;0.70;;;;;;;;;;5085068;28;20247;-68
2022/07/01 04:54:00;;;;;;;1.85;0.80;;;;;;;;;;5085079;28;20196;-68
2022/07/01 04:56:28;;;;;;;0.70;0.70;;;;;;;;;;5084793;28;20203;-68
2022/07/01 04:58:54;;;;;;;0.75;0.75;;;;;;;;;;5085163;28;20197;-68
2022/07/01 05:01:21;;;;;;;0.80;0.80;;;;;;;;;;5085166;28;20198;-68
2022/07/01 05:03:48;;;;;;;0.80;0.80;;;;;;;;;;5085120;28;20504;-67
2022/07/01 05:06:14;;;;;;;1.80;0.82;;;;;;;;;;5084664;28;20220;-67
2022/07/01 05:08:41;;;;;;;0.82;0.82;;;;;;;;;;5084502;28;20197;-67
2022/07/01 05:11:07;;;;;;;0.68;0.68;;;;;;;;;;5084252;28;20446;-68
2022/07/01 05:13:34;;;;;;;2.83;1.23;;;;;;;;;;5084288;28;20205;-67
2022/07/01 05:16:00;;;;;;;0.70;0.70;;;;;;;;;;5084106;28;20200;-67
2022/07/01 05:23:56;;;;;;;0.88;0.88;;;;;;;;;;5084249;28;20230;-67
2022/07/01 05:26:24;;;;;;;2.88;0.77;;;;;;;;;;5083723;28;20212;-67
2022/07/01 05:28:51;;;;;;;2.28;1.00;;;;;;;;;;5084126;28;20204;-67
2022/07/01 05:31:17;;;;;;;3.55;0.95;;;;;;;;;;5083780;28;20228;-67
2022/07/01 05:33:43;;;;;;;2.22;1.00;;;;;;;;;;5083788;28;20265;-67
2022/07/01 05:36:10;;;;;;;0.98;0.90;;;;;;;;;;5083682;28;20203;-67
2022/07/01 05:38:37;;;;;;;1.42;1.30;;;;;;;;;;5084160;28;20396;-67
2022/07/01 05:41:04;;;;;;;3.58;1.02;;;;;;;;;;5083729;28;20189;-67
2022/07/01 05:43:30;;;;;;;1.08;1.08;;;;;;;;;;5084073;28;20203;-67
2022/07/01 05:45:56;;;;;;;2.25;0.90;;;;;;;;;;5084032;28;20196;-67
2022/07/01 05:48:23;;;;;;;0.88;0.88;;;;;;;;;;5083682;28;20196;-67
2022/07/01 05:50:49;;;;;;;1.20;1.10;;;;;;;;;;5083451;28;20217;-67
2022/07/01 05:53:15;;;;;;;1.17;1.02;;;;;;;;;;5083674;28;20209;-67
2022/07/01 05:55:43;;;;;;;1.25;1.20;;;;;;;;;;5083648;28;20561;-67
2022/07/01 05:58:10;;;;;;;1.40;1.20;;;;;;;;;;5083100;28;20224;-67
2022/07/01 06:00:37;;;;;;;3.45;1.33;;;;;;;;;;5083609;28;20212;-67
2022/07/01 06:03:04;;;;;;;2.58;1.50;;;;;;;;;;5083260;28;20396;-67
2022/07/01 06:05:30;;;;;;;2.35;1.30;;;;;;;;;;5082995;28;20224;-62
2022/07/01 06:07:57;;;;;;;1.60;1.45;;;;;;;;;;5068875;28;20213;-63
2022/07/01 06:10:23;;;;;;;1.80;1.30;;;;;;;;;;5074699;28;20235;-60
2022/07/01 06:12:50;;;;;;;1.30;1.30;;;;;;;;;;5078226;28;20212;-62
2022/07/01 06:15:17;;;;;;;3.58;1.40;;;;;;;;;;5077047;28;20421;-60
2022/07/01 06:17:43;;;;;;;2.10;1.65;;;;;;;;;;5076886;28;20212;-60
2022/07/01 06:20:09;;;;;;;1.13;1.13;;;;;;;;;;5077350;28;20535;-61
2022/07/01 06:22:36;;;;;;;1.73;1.63;;;;;;;;;;5075699;28;20447;-61
2022/07/01 06:25:02;;;;;;;3.13;1.27;;;;;;;;;;5076192;28;20205;-61
2022/07/01 06:27:29;;;;;;;1.40;1.13;;;;;;;;;;5071938;28;20573;-61
2022/07/01 06:29:57;;;;;;;1.40;1.40;;;;;;;;;;5074114;28;20216;-62
2022/07/01 06:32:23;;;;;;;1.33;1.33;;;;;;;;;;5075933;28;20212;-60
2022/07/01 06:34:49;;;;;;;2.30;2.10;;;;;;;;;;5076287;28;20220;-61
2022/07/01 06:37:15;;;;;;;1.98;1.90;;;;;;;;;;5075238;28;20528;-61
2022/07/01 06:39:42;;;;;;;1.52;1.45;;;;;;;;;;5075756;28;20212;-61
2022/07/01 06:42:08;;;;;;;1.33;1.30;;;;;;;;;;5075481;28;20374;-62
2022/07/01 06:44:34;;;;;;;2.40;1.75;;;;;;;;;;5075695;28;20507;-62
2022/07/01 06:47:02;;;;;;;1.48;1.38;;;;;;;;;;5075045;28;20250;-62
2022/07/01 06:49:28;;;;;;;1.50;1.50;;;;;;;;;;5075795;28;20216;-64
2022/07/01 06:51:54;;;;;;;1.50;1.50;;;;;;;;;;5074350;28;20236;-62
2022/07/01 06:54:21;;;;;;;1.65;1.55;;;;;;;;;;5074667;28;20515;-62
2022/07/01 06:56:47;;;;;;;1.33;1.33;;;;;;;;;;5074641;28;20215;-62
2022/07/01 06:59:16;;;;;;;1.50;1.40;;;;;;;;;;5075511;28;20212;-62
2022/07/01 07:01:42;;;;;;;1.73;1.40;;;;;;;;;;5075394;28;20201;-62
2022/07/01 07:04:10;;;;;;;1.20;1.10;;;;;;;;;;5075796;28;20230;-61
2022/07/01 07:06:36;;;;;;;1.90;1.80;;;;;;;;;;5074501;28;20436;-62
2022/07/01 07:09:02;;;;;;;1.95;1.30;;;;;;;;;;5073520;28;20215;-61
2022/07/01 07:11:28;;;;;;;3.03;1.40;;;;;;;;;;5075291;28;20231;-62
2022/07/01 07:13:55;;;;;;;2.00;1.60;;;;;;;;;;5074380;28;20246;-62
2022/07/01 07:16:21;;;;;;;2.58;1.75;;;;;;;;;;5073352;28;20219;-61
2022/07/01 07:18:47;;;;;;;1.88;1.77;;;;;;;;;;5073713;28;20219;-61
2022/07/01 07:21:15;;;;;;;2.28;2.03;;;;;;;;;;5074575;28;20208;-61
2022/07/01 07:23:47;;;;;;;4.50;3.33;;;;;;;;;;5074280;28;20208;-62
2022/07/01 07:26:13;;;;;;;2.60;2.50;;;;;;;;;;5073645;28;20219;-62
2022/07/01 07:28:40;;;;;;;2.28;1.98;;;;;;;;;;5073705;28;20224;-61
2022/07/01 07:31:06;;;;;;;2.08;1.98;;;;;;;;;;5074109;28;20232;-62
2022/07/01 07:33:32;;;;;;;2.67;1.70;;;;;;;;;;5074009;28;20544;-61
2022/07/01 07:35:58;;;;;;;5.93;2.25;;;;;;;;;;5073922;28;20408;-61
2022/07/01 07:38:26;;;;;;;1.70;1.60;;;;;;;;;;5073193;28;20518;-61
2022/07/01 07:40:52;;;;;;;2.53;1.23;;;;;;;;;;5073662;28;20943;-62
2022/07/01 07:43:19;;;;;;;4.13;1.45;;;;;;;;;;5073841;28;20404;-61
2022/07/01 07:45:45;;;;;;;1.35;1.30;;;;;;;;;;5073602;28;20212;-61
2022/07/01 07:48:11;;;;;;;2.13;1.90;;;;;;;;;;5073279;28;20216;-61
2022/07/01 07:50:37;;;;;;;2.60;1.70;;;;;;;;;;5073873;28;20243;-61
2022/07/01 07:53:25;;;;;;;1.35;1.30;;;;;;;;;;5073790;28;20212;-61
2022/07/01 07:55:53;;;;;;;1.02;1.02;;;;;;;;;;5073559;28;20220;-62
2022/07/01 07:58:19;;;;;;;0.98;0.93;;;;;;;;;;5073509;28;20212;-61
2022/07/01 08:00:50;;;;;;;2.13;1.90;;;;;;;;;;5073581;28;20208;-60
2022/07/01 08:03:16;;;;;;;1.60;1.50;;;;;;;;;;5074079;28;20242;-62
2022/07/01 08:05:42;;;;;;;1.20;1.20;;;;;;;;;;5073559;28;20235;-61
2022/07/01 08:08:09;;;;;;;1.30;1.20;;;;;;;;;;5072383;28;20221;-62
2022/07/01 08:10:35;;;;;;;1.10;1.10;;;;;;;;;;5074042;28;20236;-61
2022/07/01 08:13:04;;;;;;;1.75;1.33;;;;;;;;;;5074369;28;20216;-61
2022/07/01 08:15:30;;;;;;;1.33;1.33;;;;;;;;;;5070968;28;20539;-60
2022/07/01 08:17:56;;;;;;;1.50;1.20;;;;;;;;;;5073410;28;20262;-61
2022/07/01 08:20:23;;;;;;;1.17;1.17;;;;;;;;;;5073374;28;20217;-62
2022/07/01 08:22:49;;;;;;;1.58;1.50;;;;;;;;;;5077470;28;20212;-60
2022/07/01 08:25:15;;;;;;;1.65;1.55;;;;;;;;;;5077681;28;20258;-61
2022/07/01 08:27:42;;;;;;;1.50;1.40;;;;;;;;;;5076720;28;20220;-60
2022/07/01 08:30:10;;;;;;;1.83;1.73;;;;;;;;;;5077624;28;20224;-61
2022/07/01 08:32:38;;;;;;;1.08;1.08;;;;;;;;;;5077239;28;20232;-61
2022/07/01 08:35:23;;;;;;;1.30;1.20;;;;;;;;;;5076716;28;20227;-61
2022/07/01 08:37:57;;;;;;;1.23;1.23;;;;;;;;;;5074628;28;20453;-60
2022/07/01 08:40:26;;;;;;;1.33;1.30;;;;;;;;;;5076991;28;20208;-61
2022/07/01 08:42:55;;;;;;;2.90;1.50;;;;;;;;;;5077535;28;20219;-61
2022/07/01 08:45:24;;;;;;;1.67;1.58;;;;;;;;;;5078606;28;20438;-59
2022/07/01 08:47:51;;;;;;;1.67;1.58;;;;;;;;;;5076556;28;20524;-61
2022/07/01 08:50:17;;;;;;;1.92;1.50;;;;;;;;;;5076578;28;20234;-61
2022/07/01 08:52:43;;;;;;;1.90;1.80;;;;;;;;;;5076857;28;20247;-59
2022/07/01 08:55:10;;;;;;;1.92;1.70;;;;;;;;;;5076728;28;20216;-61
2022/07/01 08:57:36;;;;;;;1.60;1.60;;;;;;;;;;5075855;28;20231;-60
2022/07/01 09:00:03;;;;;;;2.03;1.90;;;;;;;;;;5076679;28;20446;-61
2022/07/01 09:02:49;;;;;;;1.80;1.70;;;;;;;;;;5076326;28;20465;-61
2022/07/01 09:05:15;;;;;;;1.83;1.45;;;;;;;;;;5075708;28;20318;-61
2022/07/01 09:07:41;;;;;;;2.05;1.50;;;;;;;;;;5076351;28;20211;-61
2022/07/01 09:10:12;;;;;;;2.42;1.70;;;;;;;;;;5076449;28;20219;-61
2022/07/01 09:12:39;;;;;;;1.70;1.60;;;;;;;;;;5076344;28;20425;-61
2022/07/01 09:15:18;;;;;;;1.83;1.63;;;;;;;;;;5076797;28;20454;-61
2022/07/01 09:17:46;;;;;;;3.45;2.10;;;;;;;;;;5076664;28;20212;-61
2022/07/01 09:20:23;;;;;;;2.22;2.13;;;;;;;;;;5076721;28;20213;-60
2022/07/01 09:22:57;;;;;;;1.52;1.38;;;;;;;;;;5077081;28;20216;-61
2022/07/01 09:25:27;;;;;;;3.63;2.00;;;;;;;;;;5075965;28;20221;-60
2022/07/01 09:28:03;;;;;;;2.05;1.75;;;;;;;;;;5076132;28;20216;-61
2022/07/01 09:30:29;;;;;;;2.75;1.58;;;;;;;;;;5073030;28;20231;-60
2022/07/01 09:33:06;;;;;;;2.25;2.13;;;;;;;;;;5075344;28;20224;-61
2022/07/01 09:35:32;;;;;;;1.35;1.27;;;;;;;;;;5072586;28;20374;-61
2022/07/01 09:37:59;;;;;;;1.75;1.20;;;;;;;;;;5072528;28;20212;-59
2022/07/01 09:40:25;;;;;;;2.10;1.15;;;;;;;;;;5075794;28;20341;-61
2022/07/01 09:42:51;;;;;;;1.17;0.95;;;;;;;;;;5075630;28;20228;-60
2022/07/01 09:45:17;;;;;;;1.17;1.10;;;;;;;;;;5075618;28;20533;-61
2022/07/01 09:47:44;;;;;;;1.20;1.20;;;;;;;;;;5075337;28;20442;-61
2022/07/01 09:50:11;;;;;;;1.40;1.30;;;;;;;;;;5076023;28;20216;-61
2022/07/01 09:52:38;;;;;;;3.88;1.58;;;;;;;;;;5076043;28;20465;-61
2022/07/01 09:55:05;;;;;;;1.33;1.33;;;;;;;;;;5075983;28;20500;-61
2022/07/01 09:57:32;;;;;;;2.65;1.63;;;;;;;;;;5075975;28;20209;-61
2022/07/01 09:59:58;;;;;;;1.60;1.60;;;;;;;;;;5076228;28;20219;-61
2022/07/01 10:02:29;;;;;;;1.50;1.40;;;;;;;;;;5075781;28;20399;-61
2022/07/01 10:04:59;;;;;;;2.00;1.92;;;;;;;;;;5079681;28;20228;-61
2022/07/01 10:07:31;;;;;;;3.47;2.00;;;;;;;;;;5075281;28;20216;-61
2022/07/01 10:10:05;;;;;;;1.48;1.02;;;;;;;;;;5076042;28;20220;-60
2022/07/01 10:12:33;;;;;;;0.90;0.90;;;;;;;;;;5072966;28;20220;-61
2022/07/01 10:15:01;;;;;;;0.90;0.90;;;;;;;;;;5072628;28;20220;-60
2022/07/01 10:17:28;;;;;;;1.88;1.50;;;;;;;;;;5074734;28;20536;-61
2022/07/01 10:19:55;;;;;;;0.90;0.90;;;;;;;;;;5075555;28;20361;-60
2022/07/01 10:22:26;;;;;;;2.40;1.13;;;;;;;;;;5075143;28;20209;-61
2022/07/01 10:24:53;;;;;;;1.10;1.08;;;;;;;;;;5075154;28;20212;-61
2022/07/01 10:27:21;;;;;;;0.90;0.90;;;;;;;;;;5074923;28;20213;-63
2022/07/01 10:29:47;;;;;;;1.92;1.80;;;;;;;;;;5075295;28;20212;-61
2022/07/01 10:32:26;;;;;;;1.33;1.23;;;;;;;;;;5074561;28;20240;-61
2022/07/01 10:35:03;;;;;;;1.38;1.27;;;;;;;;;;5074451;28;20418;-61
2022/07/01 10:37:29;;;;;;;1.83;1.10;;;;;;;;;;5071000;28;20215;-61
2022/07/01 10:39:59;;;;;;;1.35;1.25;;;;;;;;;;5075339;28;20562;-61
2022/07/01 10:42:28;;;;;;;3.50;3.15;;;;;;;;;;5075250;28;20224;-60
2022/07/01 10:45:02;;;;;;;1.20;1.13;;;;;;;;;;5074524;28;20212;-61
2022/07/01 10:47:28;;;;;;;1.02;1.02;;;;;;;;;;5074695;28;20212;-61
2022/07/01 10:49:57;;;;;;;1.05;0.98;;;;;;;;;;5075427;28;20516;-60
2022/07/01 10:52:24;;;;;;;1.60;1.17;;;;;;;;;;5075400;28;20238;-61
2022/07/01 10:54:53;;;;;;;1.50;1.38;;;;;;;;;;5074473;28;20212;-62
2022/07/01 10:57:22;;;;;;;1.98;1.27;;;;;;;;;;5074384;28;20570;-62
2022/07/01 10:59:49;;;;;;;1.23;1.15;;;;;;;;;;5074274;28;20452;-62
2022/07/01 11:02:16;;;;;;;1.27;1.25;;;;;;;;;;5074797;28;20352;-61
2022/07/01 11:04:43;;;;;;;2.83;1.30;;;;;;;;;;5074598;28;20570;-61
2022/07/01 11:07:09;;;;;;;1.10;1.10;;;;;;;;;;5073926;28;20279;-61
2022/07/01 11:09:35;;;;;;;2.25;1.30;;;;;;;;;;5074175;28;20205;-62
2022/07/01 11:12:01;;;;;;;2.60;1.40;;;;;;;;;;5075196;28;20232;-61
2022/07/01 11:14:29;;;;;;;1.60;1.50;;;;;;;;;;5074728;28;20246;-60
2022/07/01 11:16:57;;;;;;;1.20;1.20;;;;;;;;;;5074206;28;20219;-62
2022/07/01 11:19:24;;;;;;;1.98;1.50;;;;;;;;;;5074082;28;20220;-62
2022/07/01 11:21:50;;;;;;;1.35;1.33;;;;;;;;;;5074627;28;20276;-61
2022/07/01 11:24:17;;;;;;;1.38;1.27;;;;;;;;;;5074822;28;20220;-61
2022/07/01 11:26:43;;;;;;;4.10;1.35;;;;;;;;;;5074067;28;20207;-62
2022/07/01 11:29:10;;;;;;;1.38;1.08;;;;;;;;;;5074246;28;20212;-62
2022/07/01 11:31:38;;;;;;;1.17;1.17;;;;;;;;;;5074031;28;20561;-62
2022/07/01 11:34:04;;;;;;;3.50;1.02;;;;;;;;;;5074685;28;20219;-62
2022/07/01 11:39:23;;;;;;;1.23;1.10;;;;;;;;;;5072788;28;20423;-61
2022/07/01 11:41:52;;;;;;;1.08;1.00;;;;;;;;;;5074097;28;20207;-62
2022/07/01 11:44:28;;;;;;;1.42;0.95;;;;;;;;;;5074572;28;20219;-61
2022/07/01 11:46:55;;;;;;;3.30;1.17;;;;;;;;;;5073762;28;20524;-62
2022/07/01 11:49:23;;;;;;;1.50;1.00;;;;;;;;;;5074085;28;20442;-62
2022/07/01 11:51:54;;;;;;;3.67;0.95;;;;;;;;;;5073642;28;20220;-61
2022/07/01 11:54:22;;;;;;;1.15;0.80;;;;;;;;;;5075012;28;20431;-61
2022/07/01 11:56:48;;;;;;;1.38;1.02;;;;;;;;;;5077345;28;20219;-62
2022/07/01 11:59:14;;;;;;;1.33;0.80;;;;;;;;;;5078229;28;20216;-61
2022/07/01 12:01:41;;;;;;;2.25;0.90;;;;;;;;;;5078799;28;20201;-61
2022/07/01 12:04:10;;;;;;;1.85;0.88;;;;;;;;;;5078466;28;20239;-62
2022/07/01 12:06:38;;;;;;;2.08;0.70;;;;;;;;;;5077565;28;20573;-62
2022/07/01 12:09:04;;;;;;;1.75;1.15;;;;;;;;;;5078207;28;20279;-63
2022/07/01 12:11:30;;;;;;;2.90;1.83;;;;;;;;;;5078005;28;20471;-62
2022/07/01 12:13:57;;;;;;;1.23;1.20;;;;;;;;;;5077792;28;20216;-63
2022/07/01 12:16:23;;;;;;;3.90;1.05;;;;;;;;;;5077635;28;20212;-61
2022/07/01 12:18:54;;;;;;;1.63;0.95;;;;;;;;;;5077610;28;20417;-62
2022/07/01 12:21:22;;;;;;;0.82;0.82;;;;;;;;;;5077709;28;20216;-61
2022/07/01 12:24:08;;;;;;;1.63;1.13;;;;;;;;;;5077663;28;20213;-61
2022/07/01 12:26:35;;;;;;;2.38;1.80;;;;;;;;;;5074200;28;20381;-62
2022/07/01 12:29:01;;;;;;;1.75;1.65;;;;;;;;;;5077823;28;20216;-61
2022/07/01 12:31:27;;;;;;;1.52;1.30;;;;;;;;;;5077795;28;20435;-61
2022/07/01 12:33:54;;;;;;;1.52;1.42;;;;;;;;;;5077142;28;20692;-61
2022/07/01 12:36:21;;;;;;;2.25;1.40;;;;;;;;;;5077784;28;20419;-62
2022/07/01 12:39:00;;;;;;;1.27;1.27;;;;;;;;;;5076809;28;20212;-61
2022/07/01 12:41:29;;;;;;;2.60;1.55;;;;;;;;;;5076988;28;20219;-62
2022/07/01 12:43:55;;;;;;;1.60;1.50;;;;;;;;;;5077163;28;20212;-62
2022/07/01 12:46:27;;;;;;;1.23;1.15;;;;;;;;;;5077092;28;20212;-61
2022/07/01 12:48:53;;;;;;;2.13;1.80;;;;;;;;;;5076527;28;20214;-61
2022/07/01 12:51:21;;;;;;;1.38;1.20;;;;;;;;;;5076956;28;20220;-61
2022/07/01 12:53:47;;;;;;;1.33;1.13;;;;;;;;;;5076611;28;20564;-61
2022/07/01 12:56:22;;;;;;;1.70;1.10;;;;;;;;;;5076904;28;20218;-60
2022/07/01 12:58:49;;;;;;;2.78;1.17;;;;;;;;;;5076986;28;20338;-60
2022/07/01 13:01:15;;;;;;;3.15;1.20;;;;;;;;;;5076850;28;20209;-61
2022/07/01 13:03:41;;;;;;;3.58;1.27;;;;;;;;;;5076691;28;20209;-63
2022/07/01 13:06:08;;;;;;;1.90;1.10;;;;;;;;;;5076138;28;20448;-62
2022/07/01 13:08:35;;;;;;;2.05;1.20;;;;;;;;;;5075766;28;20235;-63
2022/07/01 13:11:02;;;;;;;2.53;1.20;;;;;;;;;;5076921;28;20527;-61
2022/07/01 13:13:28;;;;;;;2.25;2.15;;;;;;;;;;5077298;28;20296;-63
2022/07/01 13:15:55;;;;;;;1.58;1.20;;;;;;;;;;5076711;28;20201;-61
2022/07/01 13:18:22;;;;;;;1.80;1.60;;;;;;;;;;5076894;28;20569;-63
2022/07/01 13:20:48;;;;;;;1.42;1.33;;;;;;;;;;5076373;28;20212;-61
2022/07/01 13:23:15;;;;;;;3.97;1.00;;;;;;;;;;5076766;28;20235;-62
2022/07/01 13:25:43;;;;;;;2.25;1.23;;;;;;;;;;5075733;28;20235;-65
2022/07/01 13:28:09;;;;;;;1.10;1.00;;;;;;;;;;5076056;28;20218;-63
2022/07/01 13:30:36;;;;;;;1.00;0.90;;;;;;;;;;5076169;28;20220;-61
2022/07/01 13:33:02;;;;;;;0.63;0.63;;;;;;;;;;5076874;28;20421;-62
2022/07/01 13:35:29;;;;;;;1.33;1.08;;;;;;;;;;5078731;28;20542;-63
2022/07/01 13:37:55;;;;;;;1.75;1.10;;;;;;;;;;5078171;28;20287;-62
2022/07/01 13:40:22;;;;;;;0.95;0.95;;;;;;;;;;5078535;28;20215;-62
2022/07/01 13:42:50;;;;;;;1.10;1.00;;;;;;;;;;5074865;28;20212;-61
2022/07/01 13:45:16;;;;;;;1.17;1.08;;;;;;;;;;5077380;28;20212;-62
2022/07/01 13:47:43;;;;;;;1.25;1.15;;;;;;;;;;5077588;28;20554;-61
2022/07/01 13:50:10;;;;;;;2.47;1.20;;;;;;;;;;5078189;28;20215;-62
2022/07/01 13:52:36;;;;;;;1.38;0.75;;;;;;;;;;5077968;28;20247;-63
2022/07/01 13:55:02;;;;;;;1.75;0.85;;;;;;;;;;5078037;28;20208;-64
2022/07/01 13:57:29;;;;;;;3.15;1.05;;;;;;;;;;5077381;28;20242;-63
2022/07/01 13:59:57;;;;;;;5.43;1.33;;;;;;;;;;5078005;28;20208;-63
2022/07/01 14:02:24;;;;;;;2.38;1.20;;;;;;;;;;5077739;28;20407;-63
2022/07/01 14:04:50;;;;;;;1.77;0.80;;;;;;;;;;5078268;28;20496;-63
2022/07/01 14:07:16;;;;;;;0.75;0.75;;;;;;;;;;5077380;28;20404;-63
2022/07/01 14:09:43;;;;;;;0.57;0.57;;;;;;;;;;5077746;28;20231;-62
2022/07/01 14:12:10;;;;;;;1.15;0.80;;;;;;;;;;5077714;28;20215;-62
2022/07/01 14:14:36;;;;;;;0.55;0.55;;;;;;;;;;5077826;28;20279;-63
2022/07/01 14:17:04;;;;;;;0.60;0.60;;;;;;;;;;5076956;28;20212;-63
2022/07/01 14:19:30;;;;;;;0.85;0.80;;;;;;;;;;5077524;28;20207;-63
2022/07/01 14:21:59;;;;;;;0.77;0.77;;;;;;;;;;5077558;28;20264;-63
2022/07/01 14:24:25;;;;;;;1.27;0.80;;;;;;;;;;5077572;28;20409;-62
2022/07/01 14:26:51;;;;;;;0.52;0.52;;;;;;;;;;5077191;28;20254;-63
2022/07/01 14:29:18;;;;;;;1.00;0.82;;;;;;;;;;5077058;28;20270;-63
2022/07/01 14:31:45;;;;;;;0.60;0.60;;;;;;;;;;5077532;28;20287;-63
2022/07/01 14:34:13;;;;;;;0.93;0.70;;;;;;;;;;5077352;28;20224;-63
2022/07/01 14:36:39;;;;;;;0.85;0.52;;;;;;;;;;5076906;28;20433;-63
2022/07/01 14:39:06;;;;;;;2.42;0.70;;;;;;;;;;5076067;28;20208;-62
2022/07/01 14:41:32;;;;;;;2.85;0.77;;;;;;;;;;5076793;28;20438;-62
2022/07/01 14:43:58;;;;;;;1.08;0.60;;;;;;;;;;5076764;28;20307;-62
2022/07/01 14:46:24;;;;;;;0.73;0.73;;;;;;;;;;5076546;28;20211;-63
2022/07/01 14:48:50;;;;;;;2.95;0.60;;;;;;;;;;5077331;28;20535;-63
2022/07/01 14:51:18;;;;;;;0.60;0.60;;;;;;;;;;5082768;28;20196;-63
2022/07/01 14:53:44;;;;;;;0.80;0.80;;;;;;;;;;5082748;28;20216;-60
2022/07/01 14:56:11;;;;;;;0.82;0.60;;;;;;;;;;5082336;28;20199;-63
2022/07/01 14:58:37;;;;;;;0.50;0.45;;;;;;;;;;5082552;28;20203;-63